createdAt,value
2022-12-24T00:02:16.325Z,96590.03
2022-12-24T00:07:11.181Z,96588.81
2022-12-24T00:12:05.173Z,96583.56
2022-12-24T00:16:58.702Z,96589.47
2022-12-24T00:21:52.201Z,96608.84
2022-12-24T00:26:47.078Z,96607.72
2022-12-24T00:31:40.420Z,96608.69
2022-12-24T00:36:33.850Z,96612.97
2022-12-24T00:41:29.224Z,96613.41
2022-12-24T00:46:25.815Z,96618.19
2022-12-24T00:51:19.902Z,96601.88
2022-12-24T00:56:13.387Z,96619.91
2022-12-24T01:01:07.635Z,96616.00
2022-12-24T01:11:11.554Z,96625.56
2022-12-24T01:16:14.260Z,96654.88
2022-12-24T01:21:35.127Z,96665.13
2022-12-24T01:26:35.470Z,96679.63
2022-12-24T01:31:32.126Z,96700.72
2022-12-24T01:36:25.653Z,96700.47
2022-12-24T01:41:41.111Z,96692.97
2022-12-24T01:46:36.765Z,96696.09
2022-12-24T01:51:38.840Z,96698.97
2022-12-24T01:56:34.049Z,96701.97
2022-12-24T02:01:28.031Z,96711.88
2022-12-24T02:06:24.119Z,96707.59
2022-12-24T02:11:21.804Z,96698.78
2022-12-24T02:16:33.970Z,96695.91
2022-12-24T02:21:56.275Z,96699.25
2022-12-24T02:27:12.824Z,96718.66
2022-12-24T02:32:16.363Z,96725.34
2022-12-24T02:37:20.333Z,96737.13
2022-12-24T02:42:20.056Z,96739.28
2022-12-24T02:47:18.667Z,96735.78
2022-12-24T02:52:31.095Z,96751.03
2022-12-24T02:57:39.750Z,96758.19
2022-12-24T03:03:07.681Z,96771.88
2022-12-24T03:08:10.890Z,96772.25
2022-12-24T03:13:13.219Z,96763.47
2022-12-24T03:18:11.724Z,96771.91
2022-12-24T03:23:06.346Z,96758.81
2022-12-24T03:28:04.415Z,96741.78
2022-12-24T03:32:58.109Z,96743.56
2022-12-24T03:37:53.297Z,96755.03
2022-12-24T03:42:46.915Z,96767.41
2022-12-24T03:47:40.286Z,96770.03
2022-12-24T03:52:33.844Z,96777.19
2022-12-24T03:57:28.632Z,96780.28
2022-12-24T04:02:22.121Z,96779.59
2022-12-24T04:07:15.615Z,96789.47
2022-12-24T04:12:09.654Z,96808.50
2022-12-24T04:17:04.680Z,96818.16
2022-12-24T04:21:58.365Z,96826.50
2022-12-24T04:26:51.918Z,96827.25
2022-12-24T04:31:45.284Z,96838.56
2022-12-24T04:36:40.399Z,96851.19
2022-12-24T04:41:33.861Z,96850.72
2022-12-24T04:46:31.575Z,96841.06
2022-12-24T04:51:26.235Z,96861.34
2022-12-24T04:56:24.040Z,96846.16
2022-12-24T05:01:21.027Z,96853.06
2022-12-24T05:06:19.195Z,96847.00
2022-12-24T05:11:14.443Z,96863.44
2022-12-24T05:16:10.112Z,96871.75
2022-12-24T05:21:04.111Z,96869.38
2022-12-24T05:26:14.811Z,96862.34
2022-12-24T05:31:09.623Z,96863.59
2022-12-24T05:36:03.096Z,96856.78
2022-12-24T05:40:56.506Z,96859.72
2022-12-24T05:45:50.349Z,96861.81
2022-12-24T05:50:45.120Z,96885.78
2022-12-24T05:55:38.443Z,96895.31
2022-12-24T06:00:31.805Z,96914.72
2022-12-24T06:05:25.132Z,96909.56
2022-12-24T06:10:20.026Z,96906.09
2022-12-24T06:15:17.454Z,96908.66
2022-12-24T06:20:13.915Z,96900.78
2022-12-24T06:25:08.395Z,96908.91
2022-12-24T06:30:03.266Z,96897.81
2022-12-24T06:34:56.624Z,96920.78
2022-12-24T06:39:49.993Z,96917.59
2022-12-24T06:44:43.425Z,96912.81
2022-12-24T06:49:38.105Z,96914.81
2022-12-24T06:54:31.487Z,96917.44
2022-12-24T06:59:24.969Z,96923.97
2022-12-24T07:04:20.670Z,96927.88
2022-12-24T07:09:16.128Z,96920.72
2022-12-24T07:14:10.131Z,96933.47
2022-12-24T07:19:04.481Z,96924.91
2022-12-24T07:23:57.826Z,96934.78
2022-12-24T07:28:52.809Z,96952.31
2022-12-24T07:33:46.251Z,96957.28
2022-12-24T07:38:39.853Z,96977.63
2022-12-24T07:43:35.317Z,96986.75
2022-12-24T07:48:32.889Z,96999.84
2022-12-24T07:53:29.832Z,97003.50
2022-12-24T07:58:23.759Z,96995.75
2022-12-24T08:03:20.528Z,96980.38
2022-12-24T08:08:15.939Z,96984.78
2022-12-24T08:13:10.089Z,96996.25
2022-12-24T08:18:03.548Z,97013.50
2022-12-24T08:22:56.982Z,97017.25
2022-12-24T08:27:51.907Z,97019.44
2022-12-24T08:32:45.274Z,97042.84
2022-12-24T08:37:38.700Z,97042.84
2022-12-24T08:42:32.072Z,97035.50
2022-12-24T08:47:26.807Z,97043.47
2022-12-24T08:52:20.391Z,97040.72
2022-12-24T08:57:14.696Z,97034.16
2022-12-24T09:02:08.264Z,97040.94
2022-12-24T09:07:03.147Z,97064.81
2022-12-24T09:11:56.691Z,97064.91
2022-12-24T09:16:50.155Z,97061.22
2022-12-24T09:21:43.706Z,97078.13
2022-12-24T09:26:38.538Z,97066.91
2022-12-24T09:31:31.940Z,97073.94
2022-12-24T09:36:25.358Z,97076.53
2022-12-24T09:41:54.927Z,97091.81
2022-12-24T09:46:53.724Z,97086.16
2022-12-24T09:51:53.337Z,97080.72
2022-12-24T09:56:49.768Z,97078.63
2022-12-24T10:01:44.045Z,97096.84
2022-12-24T10:06:51.222Z,97105.84
2022-12-24T10:11:55.169Z,97115.06
2022-12-24T10:16:59.597Z,97124.38
2022-12-24T10:22:12.446Z,97120.91
2022-12-24T10:27:15.081Z,97122.50
2022-12-24T10:32:22.462Z,97115.47
2022-12-24T10:37:25.767Z,97122.47
2022-12-24T10:42:21.428Z,97115.69
2022-12-24T10:47:16.197Z,97115.25
2022-12-24T10:52:15.143Z,97120.19
2022-12-24T10:57:27.851Z,97135.06
2022-12-24T11:02:30.535Z,97128.38
2022-12-24T11:07:25.322Z,97109.81
2022-12-24T11:12:24.995Z,97113.69
2022-12-24T11:17:24.244Z,97134.84
2022-12-24T11:22:24.411Z,97127.59
2022-12-24T11:27:47.367Z,97125.63
2022-12-24T11:32:40.809Z,97132.13
2022-12-24T11:37:34.472Z,97147.72
2022-12-24T11:42:35.507Z,97138.06
2022-12-24T11:47:38.615Z,97142.47
2022-12-24T11:52:33.412Z,97135.25
2022-12-24T11:57:39.371Z,97122.91
2022-12-24T12:02:39.295Z,97121.53
2022-12-24T12:07:36.685Z,97129.06
2022-12-24T12:12:35.366Z,97128.03
2022-12-24T12:17:38.275Z,97118.00
2022-12-24T12:22:43.478Z,97110.44
2022-12-24T12:27:45.465Z,97106.78
2022-12-24T12:32:49.997Z,97109.09
2022-12-24T12:37:50.592Z,97122.66
2022-12-24T12:42:53.672Z,97119.34
2022-12-24T12:48:21.798Z,97115.84
2022-12-24T12:53:39.977Z,97120.06
2022-12-24T12:58:40.965Z,97152.00
2022-12-24T13:36:16.752Z,97084.69
2022-12-24T13:41:53.952Z,97088.44
2022-12-24T13:47:03.282Z,97078.81
2022-12-24T13:52:22.875Z,97093.81
2022-12-24T13:57:33.880Z,97088.44
2022-12-24T14:02:32.042Z,97077.78
2022-12-24T14:07:27.896Z,97077.78
2022-12-24T14:12:54.364Z,97075.25
2022-12-24T14:17:50.457Z,97076.91
2022-12-24T14:22:47.169Z,97079.34
2022-12-24T14:27:46.822Z,97100.28
2022-12-24T14:32:42.284Z,97103.13
2022-12-24T14:37:37.112Z,97087.63
2022-12-24T14:42:43.080Z,97085.94
2022-12-24T14:47:47.143Z,97094.34
2022-12-24T14:53:05.326Z,97090.38
2022-12-24T14:58:31.244Z,97100.38
2022-12-24T15:03:28.420Z,97098.22
2022-12-24T15:08:32.182Z,97091.47
2022-12-24T15:13:36.978Z,97098.81
2022-12-24T15:18:35.444Z,97084.88
2022-12-24T15:23:33.787Z,97082.50
2022-12-24T15:28:28.712Z,97079.00
2022-12-24T15:33:22.196Z,97095.53
2022-12-24T15:38:33.935Z,97093.75
2022-12-24T15:43:29.850Z,97083.28
2022-12-24T15:48:27.910Z,97096.19
2022-12-24T15:53:29.371Z,97106.81
2022-12-24T15:58:30.143Z,97104.94
2022-12-24T16:03:23.706Z,97094.69
